Time,TemperatureF,DewpointF,PressureIn,WindDirection,WindDirectionDegrees,WindSpeedMPH,WindSpeedGustMPH,Humidity,HourlyPrecipIn,Conditions,Clouds,dailyrainin,SoftwareType,DateUTC
2013-01-26 00:00:00,21.7,18.7,30.06,WSW,253,0.0,0.0,88,0.00,,,0.00,VWS V14.01,2013-01-26 05:00:00,
2013-01-26 00:03:00,21.7,18.7,30.06,WSW,253,0.0,0.0,88,0.00,,,0.00,VWS V14.01,2013-01-26 05:03:00,
2013-01-26 00:05:00,21.7,18.7,30.06,WSW,253,0.0,0.0,88,0.00,,,0.00,VWS V14.01,2013-01-26 05:05:00,
2013-01-26 00:10:00,21.7,18.7,30.06,WSW,253,0.0,0.0,88,0.00,,,0.00,VWS V14.01,2013-01-26 05:10:00,
2013-01-26 00:15:00,21.7,18.7,30.06,WSW,253,0.0,0.0,88,0.00,,,0.00,VWS V14.01,2013-01-26 05:15:00,
2013-01-26 00:20:00,21.7,18.7,30.06,WSW,253,0.0,0.0,88,0.00,,,0.00,VWS V14.01,2013-01-26 05:20:00,
2013-01-26 00:25:00,21.7,18.7,30.06,WSW,253,0.0,0.0,88,0.00,,,0.00,VWS V14.01,2013-01-26 05:25:00,
2013-01-26 00:30:00,21.6,18.6,30.06,WSW,253,0.0,0.0,88,0.00,,,0.00,VWS V14.01,2013-01-26 05:30:00,
2013-01-26 00:35:00,21.6,18.6,30.06,WSW,253,0.0,0.0,88,0.00,,,0.00,VWS V14.01,2013-01-26 05:35:00,
2013-01-26 00:41:00,21.6,18.6,30.06,WSW,253,0.0,0.0,88,0.00,,,0.00,VWS V14.01,2013-01-26 05:41:00,
2013-01-26 00:46:00,21.6,18.6,30.07,WSW,253,0.0,0.0,88,0.00,,,0.00,VWS V14.01,2013-01-26 05:46:00,
2013-01-26 00:51:00,21.5,18.5,30.07,WSW,253,0.0,0.0,88,0.00,,,0.00,VWS V14.01,2013-01-26 05:51:00,
2013-01-26 00:56:00,21.5,18.5,30.08,WSW,253,0.0,0.0,88,0.00,,,0.00,VWS V14.01,2013-01-26 05:56:00,
2013-01-26 01:01:00,21.5,18.5,30.08,WSW,255,0.0,0.0,88,0.00,,,0.00,VWS V14.01,2013-01-26 06:01:00,
2013-01-26 01:06:00,21.4,18.4,30.08,WSW,255,0.0,0.0,88,0.00,,,0.00,VWS V14.01,2013-01-26 06:06:00,
2013-01-26 01:11:00,21.4,18.4,30.08,WSW,255,0.0,0.0,88,0.00,,,0.00,VWS V14.01,2013-01-26 06:11:00,
2013-01-26 01:16:00,21.5,18.5,30.08,WSW,255,0.0,0.0,88,0.00,,,0.00,VWS V14.01,2013-01-26 06:16:00,
2013-01-26 01:21:00,21.4,18.4,30.08,West,264,0.0,0.0,88,0.00,,,0.00,VWS V14.01,2013-01-26 06:21:00,
2013-01-26 01:26:00,21.4,18.4,30.09,West,264,0.0,0.0,88,0.00,,,0.00,VWS V14.01,2013-01-26 06:26:00,
2013-01-26 01:31:00,21.4,18.4,30.09,West,264,0.0,0.0,88,0.00,,,0.00,VWS V14.01,2013-01-26 06:31:00,
2013-01-26 01:36:00,21.4,18.4,30.09,West,269,0.0,0.0,88,0.00,,,0.00,VWS V14.01,2013-01-26 06:36:00,
2013-01-26 01:41:00,21.4,18.4,30.09,West,269,0.0,0.0,88,0.00,,,0.00,VWS V14.01,2013-01-26 06:41:00,
2013-01-26 01:46:00,21.4,18.4,30.09,West,269,0.0,0.0,88,0.00,,,0.00,VWS V14.01,2013-01-26 06:46:00,
2013-01-26 01:51:00,21.4,18.4,30.09,West,269,0.0,0.0,88,0.00,,,0.00,VWS V14.01,2013-01-26 06:51:00,
2013-01-26 01:56:00,21.3,18.3,30.09,West,269,0.0,0.0,88,0.00,,,0.00,VWS V14.01,2013-01-26 06:56:00,
2013-01-26 02:01:00,21.3,18.3,30.10,West,269,0.0,0.0,88,0.00,,,0.00,VWS V14.01,2013-01-26 07:01:00,
2013-01-26 02:06:00,21.3,18.3,30.10,West,269,0.0,0.0,88,0.00,,,0.00,VWS V14.01,2013-01-26 07:06:00,
2013-01-26 02:12:00,21.3,18.3,30.10,West,269,0.0,0.0,88,0.00,,,0.00,VWS V14.01,2013-01-26 07:12:00,
2013-01-26 02:17:00,21.2,18.2,30.10,West,269,0.0,0.0,88,0.00,,,0.00,VWS V14.01,2013-01-26 07:17:00,
2013-01-26 02:22:00,21.2,18.2,30.11,West,269,0.0,0.0,88,0.00,,,0.00,VWS V14.01,2013-01-26 07:22:00,
2013-01-26 02:27:00,21.2,18.2,30.11,West,269,0.0,0.0,88,0.00,,,0.00,VWS V14.01,2013-01-26 07:27:00,
2013-01-26 02:32:00,21.2,18.2,30.11,West,269,0.0,0.0,88,0.00,,,0.00,VWS V14.01,2013-01-26 07:32:00,
2013-01-26 02:37:00,21.2,18.2,30.11,West,269,0.0,0.0,88,0.00,,,0.00,VWS V14.01,2013-01-26 07:37:00,
2013-01-26 02:42:00,21.1,18.1,30.11,West,269,0.0,0.0,88,0.00,,,0.00,VWS V14.01,2013-01-26 07:42:00,
2013-01-26 02:47:00,21.1,18.1,30.11,West,269,0.0,0.0,88,0.00,,,0.00,VWS V14.01,2013-01-26 07:47:00,
2013-01-26 02:52:00,21.1,18.1,30.12,West,269,0.0,0.0,88,0.00,,,0.00,VWS V14.01,2013-01-26 07:52:00,
2013-01-26 02:57:00,21.1,18.1,30.12,West,269,0.0,0.0,88,0.00,,,0.00,VWS V14.01,2013-01-26 07:57:00,
2013-01-26 03:02:00,21.1,18.1,30.12,West,269,0.0,0.0,88,0.00,,OVC044,0.00,VWS V14.01,2013-01-26 08:02:00,
2013-01-26 03:07:00,21.1,18.1,30.12,West,269,0.0,0.0,88,0.00,,OVC044,0.00,VWS V14.01,2013-01-26 08:07:00,
2013-01-26 03:12:00,21.1,18.1,30.12,West,269,0.0,0.0,88,0.00,,OVC044,0.00,VWS V14.01,2013-01-26 08:12:00,
2013-01-26 03:17:00,21.1,18.1,30.13,West,269,0.0,0.0,88,0.00,,OVC044,0.00,VWS V14.01,2013-01-26 08:17:00,
2013-01-26 03:22:00,21.1,18.1,30.13,West,269,0.0,0.0,88,0.00,,OVC044,0.00,VWS V14.01,2013-01-26 08:22:00,
2013-01-26 03:27:00,21.1,18.1,30.13,West,269,0.0,0.0,88,0.00,,OVC044,0.00,VWS V14.01,2013-01-26 08:27:00,
2013-01-26 03:32:00,21.1,18.1,30.13,West,269,0.0,0.0,88,0.00,,OVC044,0.00,VWS V14.01,2013-01-26 08:32:00,
2013-01-26 03:37:00,21.1,18.1,30.13,West,275,0.0,3.0,88,0.00,,OVC044,0.00,VWS V14.01,2013-01-26 08:37:00,
2013-01-26 03:42:00,21.1,18.1,30.13,West,275,0.0,1.0,88,0.00,,OVC044,0.00,VWS V14.01,2013-01-26 08:42:00,
2013-01-26 03:47:00,21.1,18.1,30.14,WNW,288,0.0,0.0,88,0.00,,OVC044,0.00,VWS V14.01,2013-01-26 08:47:00,
2013-01-26 03:52:00,21.1,18.1,30.14,WNW,292,1.0,3.0,88,0.00,,OVC044,0.00,VWS V14.01,2013-01-26 08:52:00,
2013-01-26 03:57:00,21.1,18.1,30.14,WNW,292,1.0,2.0,88,0.00,,OVC044,0.00,VWS V14.01,2013-01-26 08:57:00,
2013-01-26 04:02:00,21.1,18.1,30.14,WNW,292,0.0,0.0,88,0.00,,OVC033,0.00,VWS V14.01,2013-01-26 09:02:00,
2013-01-26 04:08:00,21.1,18.1,30.14,WNW,292,0.0,0.0,88,0.00,,OVC033,0.00,VWS V14.01,2013-01-26 09:08:00,
2013-01-26 04:13:00,21.1,18.1,30.15,WNW,292,0.0,0.0,88,0.00,,OVC033,0.00,VWS V14.01,2013-01-26 09:13:00,
2013-01-26 04:18:00,21.1,18.1,30.15,WNW,292,0.0,0.0,88,0.00,,OVC033,0.00,VWS V14.01,2013-01-26 09:18:00,
2013-01-26 04:23:00,21.1,18.1,30.15,WNW,292,0.0,0.0,88,0.00,,OVC033,0.00,VWS V14.01,2013-01-26 09:23:00,
2013-01-26 04:28:00,21.1,18.1,30.15,WNW,292,0.0,0.0,88,0.00,,OVC033,0.00,VWS V14.01,2013-01-26 09:28:00,
2013-01-26 04:33:00,21.1,18.1,30.15,WNW,292,0.0,0.0,88,0.00,,OVC033,0.00,VWS V14.01,2013-01-26 09:33:00,
2013-01-26 04:38:00,21.1,18.1,30.15,WNW,292,0.0,0.0,88,0.00,,OVC033,0.00,VWS V14.01,2013-01-26 09:38:00,
2013-01-26 04:43:00,21.1,18.1,30.15,WNW,292,0.0,0.0,88,0.00,,OVC033,0.00,VWS V14.01,2013-01-26 09:43:00,
2013-01-26 04:48:00,21.1,18.1,30.15,WNW,292,0.0,2.0,88,0.00,,OVC033,0.00,VWS V14.01,2013-01-26 09:48:00,
2013-01-26 04:53:00,21.1,18.1,30.16,WNW,292,0.0,0.0,88,0.00,,OVC033,0.00,VWS V14.01,2013-01-26 09:53:00,
2013-01-26 04:58:00,21.1,18.1,30.16,WNW,292,0.0,0.0,88,0.00,,OVC033,0.00,VWS V14.01,2013-01-26 09:58:00,
2013-01-26 05:03:00,21.1,18.1,30.16,WNW,292,0.0,0.0,88,0.00,,,0.00,VWS V14.01,2013-01-26 10:03:00,
2013-01-26 05:08:00,21.1,18.1,30.16,WNW,292,0.0,0.0,88,0.00,,,0.00,VWS V14.01,2013-01-26 10:08:00,
2013-01-26 05:13:00,21.1,18.1,30.17,WNW,292,0.0,0.0,88,0.00,,,0.00,VWS V14.01,2013-01-26 10:13:00,
2013-01-26 05:18:00,21.0,18.0,30.17,WNW,292,0.0,0.0,88,0.00,,,0.00,VWS V14.01,2013-01-26 10:18:00,
2013-01-26 05:23:00,21.0,18.0,30.17,WNW,292,0.0,0.0,88,0.00,,,0.00,VWS V14.01,2013-01-26 10:23:00,
2013-01-26 05:28:00,21.0,18.0,30.17,WNW,292,0.0,0.0,88,0.00,,,0.00,VWS V14.01,2013-01-26 10:28:00,
2013-01-26 05:34:00,21.0,18.0,30.18,WNW,292,0.0,0.0,88,0.00,,,0.00,VWS V14.01,2013-01-26 10:34:00,
2013-01-26 05:39:00,21.0,18.0,30.18,WNW,292,1.0,2.0,88,0.00,,,0.00,VWS V14.01,2013-01-26 10:39:00,
2013-01-26 05:44:00,21.0,18.0,30.18,WNW,292,0.0,0.0,88,0.00,,,0.00,VWS V14.01,2013-01-26 10:44:00,
2013-01-26 05:49:00,21.0,18.0,30.18,WNW,292,0.0,0.0,88,0.00,,,0.00,VWS V14.01,2013-01-26 10:49:00,
2013-01-26 05:54:00,21.1,18.1,30.18,WNW,292,0.0,0.0,88,0.00,,,0.00,VWS V14.01,2013-01-26 10:54:00,
2013-01-26 05:59:00,21.0,18.0,30.18,WNW,292,2.0,3.0,88,0.00,,,0.00,VWS V14.01,2013-01-26 10:59:00,
2013-01-26 06:04:00,21.0,18.0,30.18,WNW,293,2.0,4.0,88,0.00,,,0.00,VWS V14.01,2013-01-26 11:04:00,
2013-01-26 06:09:00,21.0,18.0,30.19,WNW,294,3.0,4.0,88,0.00,,,0.00,VWS V14.01,2013-01-26 11:09:00,
2013-01-26 06:14:00,20.9,17.9,30.19,WNW,295,0.0,0.0,88,0.00,,,0.00,VWS V14.01,2013-01-26 11:14:00,
2013-01-26 06:19:00,20.9,17.9,30.19,NW,315,4.0,6.0,88,0.00,,,0.00,VWS V14.01,2013-01-26 11:19:00,
2013-01-26 06:24:00,20.9,17.6,30.19,NW,311,1.0,4.0,87,0.00,,,0.00,VWS V14.01,2013-01-26 11:24:00,
2013-01-26 06:29:00,20.9,17.9,30.19,NW,311,0.0,0.0,88,0.00,,,0.00,VWS V14.01,2013-01-26 11:29:00,
2013-01-26 06:34:00,20.9,17.6,30.20,NW,315,0.0,2.0,87,0.00,,,0.00,VWS V14.01,2013-01-26 11:34:00,
2013-01-26 06:39:00,20.9,17.6,30.20,NW,309,4.0,5.0,87,0.00,,,0.00,VWS V14.01,2013-01-26 11:39:00,
2013-01-26 06:44:00,20.9,17.6,30.20,NW,309,2.0,2.0,87,0.00,,,0.00,VWS V14.01,2013-01-26 11:44:00,
2013-01-26 06:49:00,20.8,17.5,30.20,NW,309,2.0,2.0,87,0.00,,,0.00,VWS V14.01,2013-01-26 11:49:00,
2013-01-26 06:54:00,20.8,17.5,30.21,NW,309,1.0,1.0,87,0.00,,,0.00,VWS V14.01,2013-01-26 11:54:00,
2013-01-26 07:00:00,20.8,17.5,30.21,NW,309,0.0,1.0,87,0.00,,,0.00,VWS V14.01,2013-01-26 12:00:00,
2013-01-26 07:05:00,20.8,19.8,30.21,NW,309,1.0,2.0,96,0.00,,OVC039,0.00,VWS V14.01,2013-01-26 12:05:00,
2013-01-26 07:10:00,20.8,19.6,30.21,NW,309,2.0,3.0,95,0.00,,OVC039,0.00,VWS V14.01,2013-01-26 12:10:00,
2013-01-26 07:15:00,20.8,19.6,30.21,NW,309,0.0,1.0,95,0.00,,OVC039,0.00,VWS V14.01,2013-01-26 12:15:00,
2013-01-26 07:20:00,20.8,17.5,30.22,NW,309,0.0,0.0,87,0.00,,OVC039,0.00,VWS V14.01,2013-01-26 12:20:00,
2013-01-26 07:25:00,20.7,17.2,30.22,NW,309,0.0,0.0,86,0.00,,OVC039,0.00,VWS V14.01,2013-01-26 12:25:00,
2013-01-26 07:30:00,20.7,17.2,30.22,NW,309,0.0,1.0,86,0.00,,OVC039,0.00,VWS V14.01,2013-01-26 12:30:00,
2013-01-26 07:35:00,20.7,17.2,30.22,NW,309,0.0,0.0,86,0.00,,OVC039,0.00,VWS V14.01,2013-01-26 12:35:00,
2013-01-26 07:40:00,20.6,17.1,30.22,NW,309,0.0,0.0,86,0.00,,OVC039,0.00,VWS V14.01,2013-01-26 12:40:00,
2013-01-26 07:45:00,20.6,17.1,30.22,NW,309,0.0,0.0,86,0.00,,OVC039,0.00,VWS V14.01,2013-01-26 12:45:00,
2013-01-26 07:50:00,20.5,17.0,30.23,NW,309,0.0,0.0,86,0.00,,OVC039,0.00,VWS V14.01,2013-01-26 12:50:00,
2013-01-26 07:55:00,20.4,16.9,30.23,NW,309,0.0,0.0,86,0.00,,OVC039,0.00,VWS V14.01,2013-01-26 12:55:00,
2013-01-26 08:01:00,20.3,16.8,30.23,NW,309,0.0,0.0,86,0.00,,OVC039,0.00,VWS V14.01,2013-01-26 13:01:00,
2013-01-26 08:06:00,20.3,16.8,30.23,NW,309,0.0,0.0,86,0.00,,OVC041,0.00,VWS V14.01,2013-01-26 13:06:00,
2013-01-26 08:11:00,20.3,16.8,30.24,NW,309,0.0,0.0,86,0.00,,OVC041,0.00,VWS V14.01,2013-01-26 13:11:00,
2013-01-26 08:16:00,20.2,16.7,30.24,NW,309,0.0,0.0,86,0.00,,OVC041,0.00,VWS V14.01,2013-01-26 13:16:00,
2013-01-26 08:21:00,20.2,16.7,30.24,NW,309,0.0,0.0,86,0.00,,OVC041,0.00,VWS V14.01,2013-01-26 13:21:00,
2013-01-26 08:26:00,20.2,16.7,30.23,NW,309,0.0,0.0,86,0.00,,OVC041,0.00,VWS V14.01,2013-01-26 13:26:00,
2013-01-26 08:31:00,20.2,16.7,30.24,NW,309,0.0,0.0,86,0.00,,OVC041,0.00,VWS V14.01,2013-01-26 13:31:00,
2013-01-26 08:36:00,20.1,16.6,30.24,NW,309,1.0,1.0,86,0.00,,OVC041,0.00,VWS V14.01,2013-01-26 13:36:00,
2013-01-26 08:41:00,20.0,16.5,30.24,NW,309,1.0,2.0,86,0.00,,OVC041,0.00,VWS V14.01,2013-01-26 13:41:00,
2013-01-26 08:46:00,19.9,16.1,30.24,NW,309,1.0,3.0,85,0.00,,OVC041,0.00,VWS V14.01,2013-01-26 13:46:00,
2013-01-26 08:51:00,19.9,16.1,30.24,NW,309,1.0,2.0,85,0.00,,OVC041,0.00,VWS V14.01,2013-01-26 13:51:00,
2013-01-26 08:56:00,19.8,16.0,30.25,NW,309,1.0,1.0,85,0.00,,OVC041,0.00,VWS V14.01,2013-01-26 13:56:00,
2013-01-26 09:01:00,19.8,16.3,30.24,NW,309,0.0,0.0,86,0.00,,BKN041,0.00,VWS V14.01,2013-01-26 14:01:00,
2013-01-26 09:06:00,19.7,15.9,30.25,NW,309,0.0,0.0,85,0.00,,BKN041,0.00,VWS V14.01,2013-01-26 14:06:00,
2013-01-26 09:11:00,19.7,15.9,30.25,NW,309,0.0,0.0,85,0.00,,BKN041,0.00,VWS V14.01,2013-01-26 14:11:00,
2013-01-26 09:17:00,19.6,15.8,30.25,NW,309,0.0,0.0,85,0.00,,BKN041,0.00,VWS V14.01,2013-01-26 14:17:00,
2013-01-26 09:22:00,19.4,15.6,30.26,NW,309,0.0,0.0,85,0.00,,BKN041,0.00,VWS V14.01,2013-01-26 14:22:00,
2013-01-26 09:27:00,19.3,15.5,30.26,NW,309,0.0,0.0,85,0.00,,BKN041,0.00,VWS V14.01,2013-01-26 14:27:00,
2013-01-26 09:32:00,19.5,15.7,30.26,NW,309,0.0,0.0,85,0.00,,BKN041,0.00,VWS V14.01,2013-01-26 14:32:00,
2013-01-26 09:37:00,19.7,16.2,30.27,NW,309,0.0,0.0,86,0.00,,BKN041,0.00,VWS V14.01,2013-01-26 14:37:00,
2013-01-26 09:42:00,20.1,16.6,30.27,NW,309,1.0,2.0,86,0.00,,BKN041,0.00,VWS V14.01,2013-01-26 14:42:00,
2013-01-26 09:47:00,20.4,16.9,30.28,NW,309,2.0,3.0,86,0.00,,BKN041,0.00,VWS V14.01,2013-01-26 14:47:00,
2013-01-26 09:52:00,20.8,17.3,30.28,NW,309,2.0,4.0,86,0.00,,BKN041,0.00,VWS V14.01,2013-01-26 14:52:00,
2013-01-26 09:57:00,21.1,17.6,30.27,NW,309,3.0,3.0,86,0.00,,BKN041,0.00,VWS V14.01,2013-01-26 14:57:00,
2013-01-26 10:02:00,21.2,17.7,30.28,WNW,302,5.0,5.0,86,0.00,,BKN220,0.00,VWS V14.01,2013-01-26 15:02:00,
2013-01-26 10:07:00,21.4,17.9,30.29,WNW,292,1.0,3.0,86,0.00,,BKN220,0.00,VWS V14.01,2013-01-26 15:07:00,
2013-01-26 10:12:00,21.5,17.7,30.29,WNW,292,0.0,0.0,85,0.00,,BKN220,0.00,VWS V14.01,2013-01-26 15:12:00,
2013-01-26 10:17:00,21.8,18.0,30.29,WNW,291,0.0,0.0,85,0.00,,BKN220,0.00,VWS V14.01,2013-01-26 15:17:00,
2013-01-26 10:22:00,22.1,18.3,30.29,West,276,6.0,8.0,85,0.00,,BKN220,0.00,VWS V14.01,2013-01-26 15:22:00,
2013-01-26 10:27:00,22.4,18.6,30.30,West,276,4.0,6.0,85,0.00,,BKN220,0.00,VWS V14.01,2013-01-26 15:27:00,
2013-01-26 10:32:00,22.6,18.5,30.30,West,278,0.0,3.0,84,0.00,,BKN220,0.00,VWS V14.01,2013-01-26 15:32:00,
2013-01-26 10:38:00,22.9,18.8,30.30,WNW,286,0.0,3.0,84,0.00,,BKN220,0.00,VWS V14.01,2013-01-26 15:38:00,
2013-01-26 10:43:00,23.2,18.8,30.31,WNW,286,0.0,0.0,83,0.00,,BKN220,0.00,VWS V14.01,2013-01-26 15:43:00,
2013-01-26 10:48:00,23.4,19.0,30.30,WNW,282,0.0,0.0,83,0.00,,BKN220,0.00,VWS V14.01,2013-01-26 15:48:00,
2013-01-26 10:53:00,23.7,19.0,30.31,WNW,282,2.0,5.0,82,0.00,,BKN220,0.00,VWS V14.01,2013-01-26 15:53:00,
2013-01-26 10:58:00,23.9,18.9,30.31,WNW,282,2.0,4.0,81,0.00,,BKN220,0.00,VWS V14.01,2013-01-26 15:58:00,
2013-01-26 11:03:00,24.1,19.1,30.31,West,274,0.0,5.0,81,0.00,,BKN220,0.00,VWS V14.01,2013-01-26 16:03:00,
2013-01-26 11:08:00,24.4,19.1,30.32,West,274,0.0,0.0,80,0.00,,BKN220,0.00,VWS V14.01,2013-01-26 16:08:00,
2013-01-26 11:13:00,24.5,18.9,30.32,West,280,4.0,7.0,79,0.00,,BKN220,0.00,VWS V14.01,2013-01-26 16:13:00,
2013-01-26 11:18:00,24.8,19.2,30.32,West,278,4.0,5.0,79,0.00,,BKN220,0.00,VWS V14.01,2013-01-26 16:18:00,
2013-01-26 11:23:00,25.1,19.2,30.32,West,278,3.0,5.0,78,0.00,,BKN220,0.00,VWS V14.01,2013-01-26 16:23:00,
2013-01-26 11:28:00,25.3,19.1,30.32,West,270,4.0,5.0,77,0.00,,BKN220,0.00,VWS V14.01,2013-01-26 16:28:00,
2013-01-26 11:33:00,25.5,19.0,30.32,West,274,3.0,6.0,76,0.00,,BKN220,0.00,VWS V14.01,2013-01-26 16:33:00,
2013-01-26 11:38:00,25.7,18.9,30.32,West,263,3.0,6.0,75,0.00,,BKN220,0.00,VWS V14.01,2013-01-26 16:38:00,
2013-01-26 11:43:00,26.0,19.2,30.32,West,264,0.0,2.0,75,0.00,,BKN220,0.00,VWS V14.01,2013-01-26 16:43:00,
2013-01-26 11:48:00,26.2,19.1,30.32,WNW,284,0.0,0.0,74,0.00,,BKN220,0.00,VWS V14.01,2013-01-26 16:48:00,
2013-01-26 11:54:00,26.6,19.4,30.32,West,281,0.0,11.0,74,0.00,,BKN220,0.00,VWS V14.01,2013-01-26 16:54:00,
2013-01-26 11:59:00,27.0,19.5,30.32,WNW,295,3.0,4.0,73,0.00,,BKN220,0.00,VWS V14.01,2013-01-26 16:59:00,
2013-01-26 12:04:00,27.1,19.3,30.32,West,280,5.0,6.0,72,0.00,,BKN220,0.00,VWS V14.01,2013-01-26 17:04:00,
2013-01-26 12:09:00,27.1,19.3,30.33,NNW,328,3.0,7.0,72,0.00,,BKN220,0.00,VWS V14.01,2013-01-26 17:09:00,
2013-01-26 12:14:00,27.1,19.0,30.33,WNW,287,4.0,6.0,71,0.00,,BKN220,0.00,VWS V14.01,2013-01-26 17:14:00,
2013-01-26 12:19:00,27.0,18.9,30.33,WNW,292,4.0,6.0,71,0.00,,BKN220,0.00,VWS V14.01,2013-01-26 17:19:00,
2013-01-26 12:24:00,27.0,19.2,30.33,WNW,295,3.0,5.0,72,0.00,,BKN220,0.00,VWS V14.01,2013-01-26 17:24:00,
2013-01-26 12:29:00,27.0,19.2,30.33,West,264,8.0,10.0,72,0.00,,BKN220,0.00,VWS V14.01,2013-01-26 17:29:00,
2013-01-26 12:34:00,27.0,19.2,30.33,West,276,0.0,4.0,72,0.00,,BKN220,0.00,VWS V14.01,2013-01-26 17:34:00,
2013-01-26 12:39:00,27.0,19.2,30.33,West,259,1.0,5.0,72,0.00,,BKN220,0.00,VWS V14.01,2013-01-26 17:39:00,
2013-01-26 12:44:00,27.1,19.3,30.32,West,260,2.0,5.0,72,0.00,,BKN220,0.00,VWS V14.01,2013-01-26 17:44:00,
2013-01-26 12:49:00,27.1,19.3,30.32,WSW,257,3.0,5.0,72,0.00,,BKN220,0.00,VWS V14.01,2013-01-26 17:49:00,
2013-01-26 12:54:00,27.1,19.3,30.33,West,267,2.0,6.0,72,0.00,,BKN220,0.00,VWS V14.01,2013-01-26 17:54:00,
2013-01-26 12:59:00,27.2,19.4,30.32,WSW,254,3.0,6.0,72,0.00,,BKN220,0.00,VWS V14.01,2013-01-26 17:59:00,
2013-01-26 13:04:00,27.4,19.6,30.32,West,263,4.0,7.0,72,0.00,,BKN220,0.00,VWS V14.01,2013-01-26 18:04:00,
2013-01-26 13:09:00,27.5,19.4,30.32,WNW,287,4.0,7.0,71,0.00,,BKN220,0.00,VWS V14.01,2013-01-26 18:09:00,
2013-01-26 13:14:00,27.5,18.7,30.32,WSW,252,3.0,4.0,69,0.00,,BKN220,0.00,VWS V14.01,2013-01-26 18:14:00,
2013-01-26 13:19:00,27.5,18.7,30.32,West,263,3.0,5.0,69,0.00,,BKN220,0.00,VWS V14.01,2013-01-26 18:19:00,
2013-01-26 13:25:00,27.4,18.2,30.32,WSW,251,6.0,6.0,68,0.00,,BKN220,0.00,VWS V14.01,2013-01-26 18:25:00,
2013-01-26 13:30:00,27.4,18.2,30.32,WNW,293,1.0,7.0,68,0.00,,BKN220,0.00,VWS V14.01,2013-01-26 18:30:00,
2013-01-26 13:35:00,27.4,18.2,30.32,WNW,284,1.0,5.0,68,0.00,,BKN220,0.00,VWS V14.01,2013-01-26 18:35:00,
2013-01-26 13:40:00,27.6,18.1,30.32,WSW,241,1.0,3.0,67,0.00,,BKN220,0.00,VWS V14.01,2013-01-26 18:40:00,
2013-01-26 13:45:00,27.7,18.2,30.32,WSW,251,3.0,3.0,67,0.00,,BKN220,0.00,VWS V14.01,2013-01-26 18:45:00,
2013-01-26 13:50:00,27.8,18.3,30.32,West,264,1.0,4.0,67,0.00,,BKN220,0.00,VWS V14.01,2013-01-26 18:50:00,
2013-01-26 13:55:00,27.7,18.2,30.33,West,266,4.0,4.0,67,0.00,,BKN220,0.00,VWS V14.01,2013-01-26 18:55:00,
2013-01-26 14:00:00,27.7,18.2,30.32,West,272,5.0,6.0,67,0.00,,BKN220,0.00,VWS V14.01,2013-01-26 19:00:00,
2013-01-26 14:05:00,27.7,18.2,30.33,WNW,283,1.0,2.0,67,0.00,,BKN220,0.00,VWS V14.01,2013-01-26 19:05:00,
2013-01-26 14:10:00,27.9,18.4,30.32,West,280,1.0,4.0,67,0.00,,BKN220,0.00,VWS V14.01,2013-01-26 19:10:00,
2013-01-26 14:15:00,27.9,18.4,30.32,West,267,2.0,8.0,67,0.00,,BKN220,0.00,VWS V14.01,2013-01-26 19:15:00,
2013-01-26 14:20:00,27.9,18.4,30.32,WNW,290,0.0,1.0,67,0.00,,BKN220,0.00,VWS V14.01,2013-01-26 19:20:00,
2013-01-26 14:25:00,27.9,18.4,30.32,WSW,255,5.0,6.0,67,0.00,,BKN220,0.00,VWS V14.01,2013-01-26 19:25:00,
2013-01-26 14:30:00,27.7,18.2,30.32,West,272,3.0,5.0,67,0.00,,BKN220,0.00,VWS V14.01,2013-01-26 19:30:00,
2013-01-26 14:35:00,27.8,18.6,30.32,WSW,257,4.0,8.0,68,0.00,,BKN220,0.00,VWS V14.01,2013-01-26 19:35:00,
2013-01-26 14:40:00,27.9,18.7,30.33,WNW,303,1.0,2.0,68,0.00,,BKN220,0.00,VWS V14.01,2013-01-26 19:40:00,
2013-01-26 14:45:00,28.2,19.0,30.33,WNW,303,4.0,5.0,68,0.00,,BKN220,0.00,VWS V14.01,2013-01-26 19:45:00,
2013-01-26 14:51:00,28.5,19.3,30.32,West,263,5.0,5.0,68,0.00,,BKN220,0.00,VWS V14.01,2013-01-26 19:51:00,
2013-01-26 14:56:00,28.7,19.1,30.33,WSW,240,4.0,6.0,67,0.00,,BKN220,0.00,VWS V14.01,2013-01-26 19:56:00,
2013-01-26 15:01:00,28.6,19.0,30.33,WNW,301,1.0,2.0,67,0.00,,BKN220,0.00,VWS V14.01,2013-01-26 20:01:00,
2013-01-26 15:06:00,28.7,19.1,30.32,NW,316,0.0,2.0,67,0.00,,BKN220,0.00,VWS V14.01,2013-01-26 20:06:00,
2013-01-26 15:11:00,28.8,19.2,30.33,NW,321,4.0,4.0,67,0.00,,BKN220,0.00,VWS V14.01,2013-01-26 20:11:00,
2013-01-26 15:16:00,28.8,19.2,30.33,NW,310,2.0,3.0,67,0.00,,BKN220,0.00,VWS V14.01,2013-01-26 20:16:00,
2013-01-26 15:21:00,28.8,19.2,30.33,West,259,1.0,2.0,67,0.00,,BKN220,0.00,VWS V14.01,2013-01-26 20:21:00,
2013-01-26 15:26:00,28.8,19.2,30.33,NNW,328,2.0,2.0,67,0.00,,BKN220,0.00,VWS V14.01,2013-01-26 20:26:00,
2013-01-26 15:31:00,28.9,19.3,30.33,NNW,327,0.0,0.0,67,0.00,,BKN220,0.00,VWS V14.01,2013-01-26 20:31:00,
2013-01-26 15:36:00,28.9,19.3,30.33,West,275,0.0,3.0,67,0.00,,BKN220,0.00,VWS V14.01,2013-01-26 20:36:00,
2013-01-26 15:41:00,28.7,19.1,30.34,West,262,0.0,4.0,67,0.00,,BKN220,0.00,VWS V14.01,2013-01-26 20:41:00,
2013-01-26 15:46:00,28.6,19.0,30.34,West,275,2.0,2.0,67,0.00,,BKN220,0.00,VWS V14.01,2013-01-26 20:46:00,
2013-01-26 15:51:00,28.6,19.4,30.34,West,280,0.0,1.0,68,0.00,,BKN220,0.00,VWS V14.01,2013-01-26 20:51:00,
2013-01-26 15:56:00,28.6,19.4,30.34,West,259,2.0,2.0,68,0.00,,BKN220,0.00,VWS V14.01,2013-01-26 20:56:00,
2013-01-26 16:01:00,28.6,19.7,30.35,West,273,2.0,3.0,69,0.00,,BKN032,0.00,VWS V14.01,2013-01-26 21:01:00,
2013-01-26 16:06:00,28.5,20.0,30.35,WSW,256,3.0,3.0,70,0.00,,BKN032,0.00,VWS V14.01,2013-01-26 21:06:00,
2013-01-26 16:11:00,28.5,20.0,30.35,West,271,0.0,1.0,70,0.00,,BKN032,0.00,VWS V14.01,2013-01-26 21:11:00,
2013-01-26 16:17:00,28.5,20.0,30.35,West,271,2.0,2.0,70,0.00,,BKN032,0.00,VWS V14.01,2013-01-26 21:17:00,
2013-01-26 16:22:00,28.5,20.0,30.35,WNW,284,1.0,3.0,70,0.00,,BKN032,0.00,VWS V14.01,2013-01-26 21:22:00,
2013-01-26 16:27:00,28.5,20.0,30.35,WNW,302,1.0,2.0,70,0.00,,BKN032,0.00,VWS V14.01,2013-01-26 21:27:00,
2013-01-26 16:32:00,28.5,20.3,30.35,West,259,0.0,3.0,71,0.00,,BKN032,0.00,VWS V14.01,2013-01-26 21:32:00,
2013-01-26 16:37:00,28.6,20.4,30.35,NW,323,0.0,2.0,71,0.00,,BKN032,0.00,VWS V14.01,2013-01-26 21:37:00,
2013-01-26 16:42:00,28.6,20.4,30.35,West,259,2.0,2.0,71,0.00,,BKN032,0.00,VWS V14.01,2013-01-26 21:42:00,
2013-01-26 16:47:00,28.6,20.1,30.35,WNW,298,0.0,0.0,70,0.00,,BKN032,0.00,VWS V14.01,2013-01-26 21:47:00,
2013-01-26 16:52:00,28.6,20.4,30.36,West,261,2.0,3.0,71,0.00,,BKN032,0.00,VWS V14.01,2013-01-26 21:52:00,
2013-01-26 16:57:00,28.5,20.3,30.36,West,265,1.0,2.0,71,0.00,,BKN032,0.00,VWS V14.01,2013-01-26 21:57:00,
2013-01-26 17:02:00,28.4,20.5,30.36,West,269,3.0,3.0,72,0.00,,BKN032,0.00,VWS V14.01,2013-01-26 22:02:00,
2013-01-26 17:07:00,28.3,20.4,30.37,West,273,2.0,4.0,72,0.00,,BKN032,0.00,VWS V14.01,2013-01-26 22:07:00,
2013-01-26 17:12:00,28.1,20.6,30.37,West,267,0.0,1.0,73,0.00,,BKN032,0.00,VWS V14.01,2013-01-26 22:12:00,
2013-01-26 17:17:00,28.0,20.5,30.38,West,275,1.0,2.0,73,0.00,,BKN032,0.00,VWS V14.01,2013-01-26 22:17:00,
2013-01-26 17:22:00,27.9,20.7,30.37,West,280,1.0,2.0,74,0.00,,OVC035,0.00,VWS V14.01,2013-01-26 22:22:00,
2013-01-26 17:27:00,27.8,20.6,30.37,West,272,2.0,2.0,74,0.00,,OVC035,0.00,VWS V14.01,2013-01-26 22:27:00,
2013-01-26 17:33:00,27.8,20.9,30.37,West,268,0.0,2.0,75,0.00,,OVC035,0.00,VWS V14.01,2013-01-26 22:33:00,
2013-01-26 17:38:00,27.7,20.8,30.37,West,267,1.0,2.0,75,0.00,,OVC035,0.00,VWS V14.01,2013-01-26 22:38:00,
2013-01-26 17:43:00,27.6,21.0,30.37,West,260,1.0,3.0,76,0.00,,OVC035,0.00,VWS V14.01,2013-01-26 22:43:00,
2013-01-26 17:48:00,27.6,21.4,30.38,WNW,283,1.0,4.0,77,0.00,,OVC035,0.00,VWS V14.01,2013-01-26 22:48:00,
2013-01-26 17:53:00,27.6,21.4,30.38,West,271,0.0,2.0,77,0.00,,OVC035,0.00,VWS V14.01,2013-01-26 22:53:00,
2013-01-26 17:58:00,27.5,21.5,30.38,West,270,0.0,1.0,78,0.00,,OVC035,0.00,VWS V14.01,2013-01-26 22:58:00,
2013-01-26 18:03:00,27.4,21.8,30.38,West,263,2.0,3.0,79,0.00,,OVC035,0.00,VWS V14.01,2013-01-26 23:03:00,
2013-01-26 18:08:00,27.2,21.6,30.38,West,273,0.0,3.0,79,0.00,,OVC035,0.00,VWS V14.01,2013-01-26 23:08:00,
2013-01-26 18:13:00,27.1,21.5,30.38,West,273,0.0,0.0,79,0.00,,OVC035,0.00,VWS V14.01,2013-01-26 23:13:00,
2013-01-26 18:18:00,27.0,21.7,30.38,West,273,0.0,0.0,80,0.00,,OVC035,0.00,VWS V14.01,2013-01-26 23:18:00,
2013-01-26 18:23:00,27.0,21.7,30.38,West,273,0.0,0.0,80,0.00,,OVC250,0.00,VWS V14.01,2013-01-26 23:23:00,
2013-01-26 18:28:00,26.9,21.9,30.38,West,273,0.0,0.0,81,0.00,,OVC250,0.00,VWS V14.01,2013-01-26 23:28:00,
2013-01-26 18:33:00,26.8,21.8,30.38,West,273,0.0,0.0,81,0.00,,OVC250,0.00,VWS V14.01,2013-01-26 23:33:00,
2013-01-26 18:38:00,26.8,21.8,30.38,West,273,0.0,0.0,81,0.00,,OVC250,0.00,VWS V14.01,2013-01-26 23:38:00,
2013-01-26 18:43:00,26.7,21.7,30.38,West,273,0.0,0.0,81,0.00,,OVC250,0.00,VWS V14.01,2013-01-26 23:43:00,
2013-01-26 18:48:00,26.7,21.7,30.38,West,273,0.0,0.0,81,0.00,,OVC250,0.00,VWS V14.01,2013-01-26 23:48:00,
2013-01-26 18:53:00,26.6,21.9,30.38,West,273,0.0,0.0,82,0.00,,OVC250,0.00,VWS V14.01,2013-01-26 23:53:00,
2013-01-26 18:58:00,26.5,21.8,30.38,West,273,0.0,0.0,82,0.00,,OVC250,0.00,VWS V14.01,2013-01-26 23:58:00,
2013-01-26 19:04:00,26.5,21.8,30.38,West,273,0.0,0.0,82,0.00,,OVC250,0.00,VWS V14.01,2013-01-27 00:04:00,
2013-01-26 19:09:00,26.5,21.8,30.38,West,273,0.0,0.0,82,0.00,,OVC250,0.00,VWS V14.01,2013-01-27 00:09:00,
2013-01-26 19:14:00,26.5,21.8,30.38,West,273,0.0,0.0,82,0.00,,OVC250,0.00,VWS V14.01,2013-01-27 00:14:00,
2013-01-26 19:19:00,26.5,21.8,30.38,West,273,0.0,0.0,82,0.00,,OVC250,0.00,VWS V14.01,2013-01-27 00:19:00,
2013-01-26 19:24:00,26.4,22.0,30.38,West,273,0.0,0.0,83,0.00,,OVC037,0.00,VWS V14.01,2013-01-27 00:24:00,
2013-01-26 19:29:00,26.4,22.0,30.39,West,273,0.0,0.0,83,0.00,,OVC037,0.00,VWS V14.01,2013-01-27 00:29:00,
2013-01-26 19:34:00,26.4,22.0,30.38,West,273,0.0,0.0,83,0.00,,OVC037,0.00,VWS V14.01,2013-01-27 00:34:00,
2013-01-26 19:39:00,26.3,21.9,30.38,West,273,0.0,0.0,83,0.00,,OVC037,0.00,VWS V14.01,2013-01-27 00:39:00,
2013-01-26 19:44:00,26.3,21.9,30.39,West,273,0.0,0.0,83,0.00,,OVC037,0.00,VWS V14.01,2013-01-27 00:44:00,
2013-01-26 19:49:00,26.3,21.9,30.39,West,273,0.0,0.0,83,0.00,,OVC037,0.00,VWS V14.01,2013-01-27 00:49:00,
2013-01-26 19:54:00,26.3,21.9,30.39,West,273,0.0,0.0,83,0.00,,OVC037,0.00,VWS V14.01,2013-01-27 00:54:00,
2013-01-26 19:59:00,26.3,21.9,30.39,West,273,0.0,0.0,83,0.00,,OVC037,0.00,VWS V14.01,2013-01-27 00:59:00,
2013-01-26 20:04:00,26.3,21.9,30.39,West,273,0.0,0.0,83,0.00,,OVC037,0.00,VWS V14.01,2013-01-27 01:04:00,
2013-01-26 20:09:00,26.2,21.8,30.38,West,273,0.0,0.0,83,0.00,,OVC037,0.00,VWS V14.01,2013-01-27 01:09:00,
2013-01-26 20:14:00,26.2,21.8,30.38,West,273,0.0,0.0,83,0.00,,OVC037,0.00,VWS V14.01,2013-01-27 01:14:00,
2013-01-26 20:19:00,26.2,22.0,30.38,West,273,0.0,0.0,84,0.00,,OVC037,0.00,VWS V14.01,2013-01-27 01:19:00,
2013-01-26 20:24:00,26.2,22.0,30.38,West,273,0.0,0.0,84,0.00,,OVC035,0.00,VWS V14.01,2013-01-27 01:24:00,